sensor_id;sensor_type;location;lat;lon;timestamp;P1;durP1;ratioP1;P2;durP2;ratioP2
64353;SDS011;50681;53.334;-6.536;2024-02-28T00:00:09;62.77;;;12.80;;
64353;SDS011;50681;53.334;-6.536;2024-02-28T00:02:36;57.13;;;10.02;;
64353;SDS011;50681;53.334;-6.536;2024-02-28T00:05:01;63.83;;;10.70;;
64353;SDS011;50681;53.334;-6.536;2024-02-28T00:07:27;46.07;;;8.27;;
64353;SDS011;50681;53.334;-6.536;2024-02-28T00:09:52;41.03;;;8.57;;
64353;SDS011;50681;53.334;-6.536;2024-02-28T00:12:22;53.10;;;8.68;;
64353;SDS011;50681;53.334;-6.536;2024-02-28T00:14:51;43.28;;;8.52;;
64353;SDS011;50681;53.334;-6.536;2024-02-28T00:17:16;60.95;;;8.70;;
64353;SDS011;50681;53.334;-6.536;2024-02-28T00:19:42;57.50;;;8.83;;
64353;SDS011;50681;53.334;-6.536;2024-02-28T00:22:08;46.63;;;8.77;;
64353;SDS011;50681;53.334;-6.536;2024-02-28T00:24:34;33.70;;;7.95;;
64353;SDS011;50681;53.334;-6.536;2024-02-28T00:27:00;49.40;;;8.40;;
64353;SDS011;50681;53.334;-6.536;2024-02-28T00:29:26;47.25;;;9.48;;
64353;SDS011;50681;53.334;-6.536;2024-02-28T00:31:52;49.65;;;9.32;;
64353;SDS011;50681;53.334;-6.536;2024-02-28T00:34:17;44.07;;;8.30;;
64353;SDS011;50681;53.334;-6.536;2024-02-28T00:36:43;55.63;;;8.77;;
64353;SDS011;50681;53.334;-6.536;2024-02-28T00:39:08;54.30;;;7.90;;
64353;SDS011;50681;53.334;-6.536;2024-02-28T00:41:35;49.53;;;7.63;;
64353;SDS011;50681;53.334;-6.536;2024-02-28T00:44:02;46.57;;;7.33;;
64353;SDS011;50681;53.334;-6.536;2024-02-28T00:46:27;55.40;;;8.63;;
64353;SDS011;50681;53.334;-6.536;2024-02-28T00:48:53;41.40;;;7.50;;
64353;SDS011;50681;53.334;-6.536;2024-02-28T00:51:18;55.27;;;8.40;;
64353;SDS011;50681;53.334;-6.536;2024-02-28T00:53:44;49.97;;;7.43;;
64353;SDS011;50681;53.334;-6.536;2024-02-28T00:56:09;54.33;;;7.83;;
64353;SDS011;50681;53.334;-6.536;2024-02-28T00:58:35;39.90;;;7.37;;
64353;SDS011;50681;53.334;-6.536;2024-02-28T01:01:01;50.83;;;8.10;;
64353;SDS011;50681;53.334;-6.536;2024-02-28T01:03:27;37.27;;;6.27;;
64353;SDS011;50681;53.334;-6.536;2024-02-28T01:05:52;47.73;;;7.70;;
64353;SDS011;50681;53.334;-6.536;2024-02-28T01:08:17;62.93;;;6.90;;
64353;SDS011;50681;53.334;-6.536;2024-02-28T01:10:44;41.50;;;8.30;;
64353;SDS011;50681;53.334;-6.536;2024-02-28T01:13:09;40.00;;;6.85;;
64353;SDS011;50681;53.334;-6.536;2024-02-28T01:15:35;54.00;;;6.90;;
64353;SDS011;50681;53.334;-6.536;2024-02-28T01:18:00;49.53;;;8.63;;
64353;SDS011;50681;53.334;-6.536;2024-02-28T01:20:26;34.73;;;8.23;;
64353;SDS011;50681;53.334;-6.536;2024-02-28T01:22:51;45.90;;;7.30;;
64353;SDS011;50681;53.334;-6.536;2024-02-28T01:25:17;48.10;;;6.55;;
64353;SDS011;50681;53.334;-6.536;2024-02-28T01:27:43;44.67;;;6.80;;
64353;SDS011;50681;53.334;-6.536;2024-02-28T01:30:09;40.63;;;6.60;;
64353;SDS011;50681;53.334;-6.536;2024-02-28T01:32:34;43.88;;;7.97;;
64353;SDS011;50681;53.334;-6.536;2024-02-28T01:35:01;49.33;;;7.20;;
64353;SDS011;50681;53.334;-6.536;2024-02-28T01:37:27;45.33;;;7.30;;
64353;SDS011;50681;53.334;-6.536;2024-02-28T01:39:53;36.13;;;6.37;;
64353;SDS011;50681;53.334;-6.536;2024-02-28T01:42:18;32.73;;;5.90;;
64353;SDS011;50681;53.334;-6.536;2024-02-28T01:44:44;79.40;;;13.47;;
64353;SDS011;50681;53.334;-6.536;2024-02-28T01:47:12;50.63;;;6.30;;
64353;SDS011;50681;53.334;-6.536;2024-02-28T01:49:38;38.20;;;6.22;;
64353;SDS011;50681;53.334;-6.536;2024-02-28T01:52:05;41.97;;;6.05;;
64353;SDS011;50681;53.334;-6.536;2024-02-28T01:54:31;53.45;;;7.35;;
64353;SDS011;50681;53.334;-6.536;2024-02-28T01:57:00;42.30;;;6.35;;
64353;SDS011;50681;53.334;-6.536;2024-02-28T01:59:25;44.95;;;9.77;;
64353;SDS011;50681;53.334;-6.536;2024-02-28T02:01:52;48.92;;;7.57;;
64353;SDS011;50681;53.334;-6.536;2024-02-28T02:04:19;49.05;;;7.22;;
64353;SDS011;50681;53.334;-6.536;2024-02-28T02:06:44;34.10;;;5.43;;
64353;SDS011;50681;53.334;-6.536;2024-02-28T02:09:12;39.45;;;6.55;;
64353;SDS011;50681;53.334;-6.536;2024-02-28T02:11:38;49.25;;;6.13;;
64353;SDS011;50681;53.334;-6.536;2024-02-28T02:14:04;45.20;;;6.40;;
64353;SDS011;50681;53.334;-6.536;2024-02-28T02:16:29;34.87;;;6.27;;
64353;SDS011;50681;53.334;-6.536;2024-02-28T02:18:55;34.58;;;5.88;;
64353;SDS011;50681;53.334;-6.536;2024-02-28T02:21:24;45.47;;;6.32;;
64353;SDS011;50681;53.334;-6.536;2024-02-28T02:23:55;60.20;;;7.03;;
64353;SDS011;50681;53.334;-6.536;2024-02-28T02:26:20;40.93;;;6.43;;
64353;SDS011;50681;53.334;-6.536;2024-02-28T02:28:46;52.23;;;8.43;;
64353;SDS011;50681;53.334;-6.536;2024-02-28T02:31:11;41.27;;;5.93;;
64353;SDS011;50681;53.334;-6.536;2024-02-28T02:33:38;47.03;;;7.55;;
64353;SDS011;50681;53.334;-6.536;2024-02-28T02:36:03;36.37;;;5.83;;
64353;SDS011;50681;53.334;-6.536;2024-02-28T02:38:29;46.93;;;7.10;;
64353;SDS011;50681;53.334;-6.536;2024-02-28T02:40:54;35.30;;;6.03;;
64353;SDS011;50681;53.334;-6.536;2024-02-28T02:43:20;47.17;;;6.47;;
64353;SDS011;50681;53.334;-6.536;2024-02-28T02:45:45;34.20;;;6.37;;
64353;SDS011;50681;53.334;-6.536;2024-02-28T02:48:13;43.97;;;6.23;;
64353;SDS011;50681;53.334;-6.536;2024-02-28T02:50:39;37.35;;;6.10;;
64353;SDS011;50681;53.334;-6.536;2024-02-28T02:53:06;44.93;;;5.80;;
64353;SDS011;50681;53.334;-6.536;2024-02-28T02:55:33;41.03;;;6.22;;
64353;SDS011;50681;53.334;-6.536;2024-02-28T02:57:59;41.00;;;5.37;;
64353;SDS011;50681;53.334;-6.536;2024-02-28T03:00:25;39.47;;;6.78;;
64353;SDS011;50681;53.334;-6.536;2024-02-28T03:02:50;55.40;;;6.87;;
64353;SDS011;50681;53.334;-6.536;2024-02-28T03:05:16;42.43;;;7.63;;
64353;SDS011;50681;53.334;-6.536;2024-02-28T03:07:41;37.37;;;5.83;;
64353;SDS011;50681;53.334;-6.536;2024-02-28T03:10:06;41.97;;;6.37;;
64353;SDS011;50681;53.334;-6.536;2024-02-28T03:12:32;35.80;;;4.93;;
64353;SDS011;50681;53.334;-6.536;2024-02-28T03:14:58;43.57;;;5.53;;
64353;SDS011;50681;53.334;-6.536;2024-02-28T03:17:24;50.75;;;5.55;;
64353;SDS011;50681;53.334;-6.536;2024-02-28T03:19:49;30.40;;;5.47;;
64353;SDS011;50681;53.334;-6.536;2024-02-28T03:22:15;53.33;;;7.90;;
64353;SDS011;50681;53.334;-6.536;2024-02-28T03:24:40;57.60;;;5.77;;
64353;SDS011;50681;53.334;-6.536;2024-02-28T03:27:06;38.03;;;6.00;;
64353;SDS011;50681;53.334;-6.536;2024-02-28T03:29:31;42.50;;;6.37;;
64353;SDS011;50681;53.334;-6.536;2024-02-28T03:31:58;38.27;;;5.23;;
64353;SDS011;50681;53.334;-6.536;2024-02-28T03:34:23;45.80;;;5.97;;
64353;SDS011;50681;53.334;-6.536;2024-02-28T03:36:50;37.92;;;5.28;;
64353;SDS011;50681;53.334;-6.536;2024-02-28T03:39:16;46.50;;;6.47;;
64353;SDS011;50681;53.334;-6.536;2024-02-28T03:41:41;44.33;;;6.73;;
64353;SDS011;50681;53.334;-6.536;2024-02-28T03:44:07;33.70;;;5.97;;
64353;SDS011;50681;53.334;-6.536;2024-02-28T03:46:32;46.08;;;6.18;;
64353;SDS011;50681;53.334;-6.536;2024-02-28T03:48:58;36.87;;;5.63;;
64353;SDS011;50681;53.334;-6.536;2024-02-28T03:51:23;46.63;;;6.00;;
64353;SDS011;50681;53.334;-6.536;2024-02-28T03:53:49;51.33;;;6.30;;
64353;SDS011;50681;53.334;-6.536;2024-02-28T03:56:24;33.33;;;5.80;;
64353;SDS011;50681;53.334;-6.536;2024-02-28T03:58:52;36.42;;;4.80;;
64353;SDS011;50681;53.334;-6.536;2024-02-28T04:01:18;41.60;;;6.07;;
64353;SDS011;50681;53.334;-6.536;2024-02-28T04:03:44;51.92;;;5.95;;
64353;SDS011;50681;53.334;-6.536;2024-02-28T04:06:10;43.67;;;5.93;;
64353;SDS011;50681;53.334;-6.536;2024-02-28T04:08:36;43.55;;;5.93;;
64353;SDS011;50681;53.334;-6.536;2024-02-28T04:11:01;30.80;;;5.38;;
64353;SDS011;50681;53.334;-6.536;2024-02-28T04:13:27;25.97;;;5.50;;
64353;SDS011;50681;53.334;-6.536;2024-02-28T04:15:52;40.70;;;4.97;;
64353;SDS011;50681;53.334;-6.536;2024-02-28T04:18:18;44.23;;;6.83;;
64353;SDS011;50681;53.334;-6.536;2024-02-28T04:20:44;38.67;;;5.93;;
64353;SDS011;50681;53.334;-6.536;2024-02-28T04:23:09;33.87;;;6.10;;
64353;SDS011;50681;53.334;-6.536;2024-02-28T04:25:35;42.43;;;6.73;;
64353;SDS011;50681;53.334;-6.536;2024-02-28T04:28:01;39.42;;;6.10;;
64353;SDS011;50681;53.334;-6.536;2024-02-28T04:30:27;38.58;;;5.45;;
64353;SDS011;50681;53.334;-6.536;2024-02-28T04:32:52;40.83;;;5.17;;
64353;SDS011;50681;53.334;-6.536;2024-02-28T04:35:17;35.10;;;5.30;;
64353;SDS011;50681;53.334;-6.536;2024-02-28T04:37:46;52.55;;;5.57;;
64353;SDS011;50681;53.334;-6.536;2024-02-28T04:40:12;42.60;;;5.57;;
64353;SDS011;50681;53.334;-6.536;2024-02-28T04:42:38;37.30;;;5.35;;
64353;SDS011;50681;53.334;-6.536;2024-02-28T04:45:04;44.55;;;5.50;;
64353;SDS011;50681;53.334;-6.536;2024-02-28T04:47:30;55.63;;;5.72;;
64353;SDS011;50681;53.334;-6.536;2024-02-28T04:49:56;44.30;;;5.97;;
64353;SDS011;50681;53.334;-6.536;2024-02-28T04:52:23;56.58;;;6.13;;
64353;SDS011;50681;53.334;-6.536;2024-02-28T04:54:50;30.42;;;5.72;;
64353;SDS011;50681;53.334;-6.536;2024-02-28T04:59:45;51.90;;;6.50;;
64353;SDS011;50681;53.334;-6.536;2024-02-28T05:02:11;41.08;;;5.40;;
64353;SDS011;50681;53.334;-6.536;2024-02-28T05:04:37;43.67;;;7.03;;
64353;SDS011;50681;53.334;-6.536;2024-02-28T05:07:02;36.60;;;5.97;;
64353;SDS011;50681;53.334;-6.536;2024-02-28T05:09:28;37.35;;;6.03;;
64353;SDS011;50681;53.334;-6.536;2024-02-28T05:11:54;48.10;;;4.93;;
64353;SDS011;50681;53.334;-6.536;2024-02-28T05:17:20;32.97;;;5.40;;
64353;SDS011;50681;53.334;-6.536;2024-02-28T05:19:45;46.93;;;6.43;;
64353;SDS011;50681;53.334;-6.536;2024-02-28T05:22:11;34.90;;;6.17;;
64353;SDS011;50681;53.334;-6.536;2024-02-28T05:24:36;46.63;;;6.23;;
64353;SDS011;50681;53.334;-6.536;2024-02-28T05:27:02;43.22;;;6.03;;
64353;SDS011;50681;53.334;-6.536;2024-02-28T05:29:27;56.63;;;5.30;;
64353;SDS011;50681;53.334;-6.536;2024-02-28T05:31:53;61.70;;;6.50;;
64353;SDS011;50681;53.334;-6.536;2024-02-28T05:34:18;45.87;;;5.90;;
64353;SDS011;50681;53.334;-6.536;2024-02-28T05:36:44;34.13;;;4.60;;
64353;SDS011;50681;53.334;-6.536;2024-02-28T05:39:11;36.97;;;5.87;;
64353;SDS011;50681;53.334;-6.536;2024-02-28T05:41:36;39.08;;;5.85;;
64353;SDS011;50681;53.334;-6.536;2024-02-28T05:44:02;25.67;;;5.37;;
64353;SDS011;50681;53.334;-6.536;2024-02-28T05:46:27;43.83;;;5.50;;
64353;SDS011;50681;53.334;-6.536;2024-02-28T05:48:53;43.07;;;6.50;;
64353;SDS011;50681;53.334;-6.536;2024-02-28T05:51:19;32.07;;;6.07;;
64353;SDS011;50681;53.334;-6.536;2024-02-28T05:53:44;32.97;;;4.82;;
64353;SDS011;50681;53.334;-6.536;2024-02-28T05:56:10;31.70;;;4.87;;
64353;SDS011;50681;53.334;-6.536;2024-02-28T05:58:39;40.58;;;5.75;;
64353;SDS011;50681;53.334;-6.536;2024-02-28T06:01:08;53.67;;;9.32;;
64353;SDS011;50681;53.334;-6.536;2024-02-28T06:03:37;37.30;;;6.35;;
64353;SDS011;50681;53.334;-6.536;2024-02-28T06:06:03;32.85;;;5.50;;
64353;SDS011;50681;53.334;-6.536;2024-02-28T06:08:35;36.78;;;5.65;;
64353;SDS011;50681;53.334;-6.536;2024-02-28T06:11:03;42.78;;;5.22;;
64353;SDS011;50681;53.334;-6.536;2024-02-28T06:13:30;50.47;;;6.28;;
64353;SDS011;50681;53.334;-6.536;2024-02-28T06:15:56;37.22;;;5.75;;
64353;SDS011;50681;53.334;-6.536;2024-02-28T06:18:22;47.25;;;5.93;;
64353;SDS011;50681;53.334;-6.536;2024-02-28T06:20:55;38.97;;;5.93;;
64353;SDS011;50681;53.334;-6.536;2024-02-28T06:23:24;30.45;;;5.63;;
64353;SDS011;50681;53.334;-6.536;2024-02-28T06:25:49;31.27;;;5.38;;
64353;SDS011;50681;53.334;-6.536;2024-02-28T06:28:15;32.60;;;5.13;;
64353;SDS011;50681;53.334;-6.536;2024-02-28T06:30:40;43.67;;;5.57;;
64353;SDS011;50681;53.334;-6.536;2024-02-28T06:33:07;37.17;;;5.50;;
64353;SDS011;50681;53.334;-6.536;2024-02-28T06:35:34;29.75;;;4.50;;
64353;SDS011;50681;53.334;-6.536;2024-02-28T06:37:59;37.03;;;5.20;;
64353;SDS011;50681;53.334;-6.536;2024-02-28T06:40:25;36.27;;;4.90;;
64353;SDS011;50681;53.334;-6.536;2024-02-28T06:42:50;31.37;;;5.30;;
64353;SDS011;50681;53.334;-6.536;2024-02-28T06:45:15;34.70;;;4.63;;
64353;SDS011;50681;53.334;-6.536;2024-02-28T06:47:41;30.50;;;4.67;;
64353;SDS011;50681;53.334;-6.536;2024-02-28T06:50:06;39.30;;;5.40;;
64353;SDS011;50681;53.334;-6.536;2024-02-28T06:52:33;30.25;;;4.68;;
64353;SDS011;50681;53.334;-6.536;2024-02-28T06:54:59;28.70;;;4.30;;
64353;SDS011;50681;53.334;-6.536;2024-02-28T06:57:28;34.72;;;4.80;;
64353;SDS011;50681;53.334;-6.536;2024-02-28T06:59:53;31.47;;;4.57;;
64353;SDS011;50681;53.334;-6.536;2024-02-28T07:02:19;27.80;;;4.80;;
64353;SDS011;50681;53.334;-6.536;2024-02-28T07:04:44;39.73;;;4.47;;
64353;SDS011;50681;53.334;-6.536;2024-02-28T07:07:13;22.90;;;4.32;;
64353;SDS011;50681;53.334;-6.536;2024-02-28T07:09:38;26.15;;;3.78;;
64353;SDS011;50681;53.334;-6.536;2024-02-28T07:14:31;15.07;;;3.15;;
64353;SDS011;50681;53.334;-6.536;2024-02-28T07:16:56;21.20;;;3.20;;
64353;SDS011;50681;53.334;-6.536;2024-02-28T07:19:22;15.35;;;2.92;;
64353;SDS011;50681;53.334;-6.536;2024-02-28T07:21:47;19.17;;;2.83;;
64353;SDS011;50681;53.334;-6.536;2024-02-28T07:24:13;12.80;;;1.90;;
64353;SDS011;50681;53.334;-6.536;2024-02-28T07:26:39;9.97;;;2.10;;
64353;SDS011;50681;53.334;-6.536;2024-02-28T07:29:06;4.35;;;1.35;;
64353;SDS011;50681;53.334;-6.536;2024-02-28T07:31:31;5.07;;;1.57;;
64353;SDS011;50681;53.334;-6.536;2024-02-28T07:33:57;4.33;;;1.00;;
64353;SDS011;50681;53.334;-6.536;2024-02-28T07:38:48;3.83;;;1.08;;
64353;SDS011;50681;53.334;-6.536;2024-02-28T07:41:14;3.93;;;1.10;;
64353;SDS011;50681;53.334;-6.536;2024-02-28T07:43:42;1.90;;;0.93;;
64353;SDS011;50681;53.334;-6.536;2024-02-28T07:46:08;5.15;;;1.63;;
64353;SDS011;50681;53.334;-6.536;2024-02-28T07:48:34;7.28;;;1.45;;
64353;SDS011;50681;53.334;-6.536;2024-02-28T07:51:00;2.67;;;0.85;;
64353;SDS011;50681;53.334;-6.536;2024-02-28T07:53:26;8.15;;;1.40;;
64353;SDS011;50681;53.334;-6.536;2024-02-28T07:55:51;3.55;;;1.02;;
64353;SDS011;50681;53.334;-6.536;2024-02-28T07:58:17;2.67;;;0.93;;
64353;SDS011;50681;53.334;-6.536;2024-02-28T08:00:42;2.90;;;1.00;;
64353;SDS011;50681;53.334;-6.536;2024-02-28T08:03:09;6.78;;;1.30;;
64353;SDS011;50681;53.334;-6.536;2024-02-28T08:05:34;7.05;;;1.20;;
64353;SDS011;50681;53.334;-6.536;2024-02-28T08:08:04;4.80;;;1.05;;
64353;SDS011;50681;53.334;-6.536;2024-02-28T08:10:31;4.47;;;1.33;;
64353;SDS011;50681;53.334;-6.536;2024-02-28T08:12:56;4.33;;;1.00;;
64353;SDS011;50681;53.334;-6.536;2024-02-28T08:15:22;3.75;;;1.30;;
64353;SDS011;50681;53.334;-6.536;2024-02-28T08:17:48;7.10;;;1.10;;
64353;SDS011;50681;53.334;-6.536;2024-02-28T08:20:13;5.40;;;1.10;;
64353;SDS011;50681;53.334;-6.536;2024-02-28T08:22:39;3.58;;;1.20;;
64353;SDS011;50681;53.334;-6.536;2024-02-28T08:25:05;3.30;;;0.63;;
64353;SDS011;50681;53.334;-6.536;2024-02-28T08:27:30;3.33;;;0.88;;
64353;SDS011;50681;53.334;-6.536;2024-02-28T08:29:56;3.33;;;0.83;;
64353;SDS011;50681;53.334;-6.536;2024-02-28T08:32:21;2.70;;;0.63;;
64353;SDS011;50681;53.334;-6.536;2024-02-28T08:34:53;3.77;;;1.00;;
64353;SDS011;50681;53.334;-6.536;2024-02-28T08:37:19;3.90;;;0.90;;
64353;SDS011;50681;53.334;-6.536;2024-02-28T08:39:45;1.60;;;0.60;;
64353;SDS011;50681;53.334;-6.536;2024-02-28T08:42:10;3.20;;;1.00;;
64353;SDS011;50681;53.334;-6.536;2024-02-28T08:44:37;4.93;;;0.90;;
64353;SDS011;50681;53.334;-6.536;2024-02-28T08:47:02;1.53;;;0.57;;
64353;SDS011;50681;53.334;-6.536;2024-02-28T08:49:28;2.80;;;0.60;;
64353;SDS011;50681;53.334;-6.536;2024-02-28T08:51:54;2.40;;;0.77;;
64353;SDS011;50681;53.334;-6.536;2024-02-28T08:54:19;2.40;;;0.47;;
64353;SDS011;50681;53.334;-6.536;2024-02-28T08:56:45;1.23;;;0.53;;
64353;SDS011;50681;53.334;-6.536;2024-02-28T08:59:13;0.87;;;0.40;;
64353;SDS011;50681;53.334;-6.536;2024-02-28T09:01:39;10.00;;;3.97;;
64353;SDS011;50681;53.334;-6.536;2024-02-28T09:04:06;6.40;;;4.88;;
64353;SDS011;50681;53.334;-6.536;2024-02-28T09:06:32;2.72;;;1.30;;
64353;SDS011;50681;53.334;-6.536;2024-02-28T09:08:57;9.43;;;3.33;;
64353;SDS011;50681;53.334;-6.536;2024-02-28T09:11:23;4.07;;;1.90;;
64353;SDS011;50681;53.334;-6.536;2024-02-28T09:13:50;6.97;;;1.88;;
64353;SDS011;50681;53.334;-6.536;2024-02-28T09:16:15;7.35;;;3.42;;
64353;SDS011;50681;53.334;-6.536;2024-02-28T09:18:44;7.20;;;5.20;;
64353;SDS011;50681;53.334;-6.536;2024-02-28T09:21:09;7.50;;;4.30;;
64353;SDS011;50681;53.334;-6.536;2024-02-28T09:23:35;9.23;;;7.33;;
64353;SDS011;50681;53.334;-6.536;2024-02-28T09:26:04;20.37;;;14.60;;
64353;SDS011;50681;53.334;-6.536;2024-02-28T09:28:30;13.23;;;9.13;;
64353;SDS011;50681;53.334;-6.536;2024-02-28T09:33:46;4.70;;;2.50;;
64353;SDS011;50681;53.334;-6.536;2024-02-28T09:36:11;4.67;;;3.23;;
64353;SDS011;50681;53.334;-6.536;2024-02-28T09:38:37;5.20;;;4.20;;
64353;SDS011;50681;53.334;-6.536;2024-02-28T09:41:03;3.55;;;1.75;;
64353;SDS011;50681;53.334;-6.536;2024-02-28T09:43:32;2.90;;;1.58;;
64353;SDS011;50681;53.334;-6.536;2024-02-28T09:46:05;2.25;;;1.23;;
64353;SDS011;50681;53.334;-6.536;2024-02-28T09:50:57;1.98;;;0.63;;
64353;SDS011;50681;53.334;-6.536;2024-02-28T09:53:23;1.65;;;1.05;;
64353;SDS011;50681;53.334;-6.536;2024-02-28T09:55:49;2.67;;;1.13;;
64353;SDS011;50681;53.334;-6.536;2024-02-28T09:58:16;1.52;;;0.75;;
64353;SDS011;50681;53.334;-6.536;2024-02-28T10:00:43;3.90;;;1.05;;
64353;SDS011;50681;53.334;-6.536;2024-02-28T10:03:19;2.72;;;0.90;;
64353;SDS011;50681;53.334;-6.536;2024-02-28T10:05:45;1.15;;;0.63;;
64353;SDS011;50681;53.334;-6.536;2024-02-28T10:08:11;2.30;;;1.10;;
64353;SDS011;50681;53.334;-6.536;2024-02-28T10:10:38;2.50;;;1.35;;
64353;SDS011;50681;53.334;-6.536;2024-02-28T10:13:03;1.70;;;0.97;;
64353;SDS011;50681;53.334;-6.536;2024-02-28T10:15:30;2.20;;;1.10;;
64353;SDS011;50681;53.334;-6.536;2024-02-28T10:17:56;2.85;;;2.03;;
64353;SDS011;50681;53.334;-6.536;2024-02-28T10:20:21;3.73;;;1.40;;
64353;SDS011;50681;53.334;-6.536;2024-02-28T10:22:47;4.20;;;1.90;;
64353;SDS011;50681;53.334;-6.536;2024-02-28T10:25:13;8.27;;;3.73;;
64353;SDS011;50681;53.334;-6.536;2024-02-28T10:27:39;6.03;;;2.85;;
64353;SDS011;50681;53.334;-6.536;2024-02-28T10:30:05;15.45;;;8.00;;
64353;SDS011;50681;53.334;-6.536;2024-02-28T10:32:31;6.45;;;3.08;;
64353;SDS011;50681;53.334;-6.536;2024-02-28T10:34:58;10.13;;;5.32;;
64353;SDS011;50681;53.334;-6.536;2024-02-28T10:39:51;20.13;;;10.68;;
64353;SDS011;50681;53.334;-6.536;2024-02-28T10:42:18;9.57;;;5.15;;
64353;SDS011;50681;53.334;-6.536;2024-02-28T10:44:44;4.03;;;1.60;;
64353;SDS011;50681;53.334;-6.536;2024-02-28T10:47:09;12.67;;;6.90;;
64353;SDS011;50681;53.334;-6.536;2024-02-28T10:52:01;14.30;;;7.20;;
64353;SDS011;50681;53.334;-6.536;2024-02-28T10:54:29;14.40;;;8.45;;
64353;SDS011;50681;53.334;-6.536;2024-02-28T10:56:56;5.22;;;3.38;;
64353;SDS011;50681;53.334;-6.536;2024-02-28T11:01:50;9.10;;;5.53;;
64353;SDS011;50681;53.334;-6.536;2024-02-28T11:04:16;5.65;;;2.17;;
64353;SDS011;50681;53.334;-6.536;2024-02-28T11:06:49;10.55;;;5.57;;
64353;SDS011;50681;53.334;-6.536;2024-02-28T11:09:19;7.00;;;2.95;;
64353;SDS011;50681;53.334;-6.536;2024-02-28T11:11:47;4.72;;;3.38;;
64353;SDS011;50681;53.334;-6.536;2024-02-28T11:14:19;7.80;;;6.45;;
64353;SDS011;50681;53.334;-6.536;2024-02-28T11:17:01;3.35;;;2.20;;
64353;SDS011;50681;53.334;-6.536;2024-02-28T11:19:28;3.05;;;1.35;;
64353;SDS011;50681;53.334;-6.536;2024-02-28T11:21:56;3.10;;;1.65;;
64353;SDS011;50681;53.334;-6.536;2024-02-28T11:24:25;3.25;;;1.90;;
64353;SDS011;50681;53.334;-6.536;2024-02-28T11:26:54;7.63;;;1.33;;
64353;SDS011;50681;53.334;-6.536;2024-02-28T11:29:26;2.13;;;1.10;;
64353;SDS011;50681;53.334;-6.536;2024-02-28T11:31:53;5.75;;;1.92;;
64353;SDS011;50681;53.334;-6.536;2024-02-28T11:34:20;4.40;;;2.05;;
64353;SDS011;50681;53.334;-6.536;2024-02-28T11:36:49;1.88;;;1.00;;
64353;SDS011;50681;53.334;-6.536;2024-02-28T11:39:16;5.72;;;1.65;;
64353;SDS011;50681;53.334;-6.536;2024-02-28T11:41:43;2.35;;;1.35;;
64353;SDS011;50681;53.334;-6.536;2024-02-28T11:44:11;2.75;;;1.52;;
64353;SDS011;50681;53.334;-6.536;2024-02-28T11:46:38;3.78;;;1.67;;
64353;SDS011;50681;53.334;-6.536;2024-02-28T11:49:07;5.35;;;3.03;;
64353;SDS011;50681;53.334;-6.536;2024-02-28T11:51:33;4.70;;;2.57;;
64353;SDS011;50681;53.334;-6.536;2024-02-28T11:54:00;11.33;;;7.50;;
64353;SDS011;50681;53.334;-6.536;2024-02-28T11:56:26;8.95;;;4.35;;
64353;SDS011;50681;53.334;-6.536;2024-02-28T11:58:52;4.37;;;2.30;;
64353;SDS011;50681;53.334;-6.536;2024-02-28T12:01:18;6.70;;;4.15;;
64353;SDS011;50681;53.334;-6.536;2024-02-28T12:03:58;2.67;;;1.38;;
64353;SDS011;50681;53.334;-6.536;2024-02-28T12:06:24;2.30;;;1.23;;
64353;SDS011;50681;53.334;-6.536;2024-02-28T12:08:50;5.23;;;2.07;;
64353;SDS011;50681;53.334;-6.536;2024-02-28T12:11:15;3.90;;;1.98;;
64353;SDS011;50681;53.334;-6.536;2024-02-28T12:13:41;3.67;;;1.80;;
64353;SDS011;50681;53.334;-6.536;2024-02-28T12:16:07;2.00;;;0.90;;
64353;SDS011;50681;53.334;-6.536;2024-02-28T12:18:34;3.22;;;1.70;;
64353;SDS011;50681;53.334;-6.536;2024-02-28T12:21:00;3.90;;;1.63;;
64353;SDS011;50681;53.334;-6.536;2024-02-28T12:23:25;2.03;;;1.00;;
64353;SDS011;50681;53.334;-6.536;2024-02-28T12:25:51;4.00;;;2.37;;
64353;SDS011;50681;53.334;-6.536;2024-02-28T12:28:16;8.02;;;3.20;;
64353;SDS011;50681;53.334;-6.536;2024-02-28T12:30:42;5.73;;;2.90;;
64353;SDS011;50681;53.334;-6.536;2024-02-28T12:33:08;4.70;;;2.53;;
64353;SDS011;50681;53.334;-6.536;2024-02-28T12:35:34;4.47;;;1.73;;
64353;SDS011;50681;53.334;-6.536;2024-02-28T12:37:59;2.72;;;1.40;;
64353;SDS011;50681;53.334;-6.536;2024-02-28T12:40:27;3.35;;;1.58;;
64353;SDS011;50681;53.334;-6.536;2024-02-28T12:42:53;12.73;;;5.37;;
64353;SDS011;50681;53.334;-6.536;2024-02-28T12:45:18;12.13;;;6.03;;
64353;SDS011;50681;53.334;-6.536;2024-02-28T12:47:44;37.07;;;21.03;;
64353;SDS011;50681;53.334;-6.536;2024-02-28T12:50:09;18.57;;;8.10;;
64353;SDS011;50681;53.334;-6.536;2024-02-28T12:55:01;15.65;;;6.68;;
64353;SDS011;50681;53.334;-6.536;2024-02-28T12:57:27;19.25;;;8.60;;
64353;SDS011;50681;53.334;-6.536;2024-02-28T12:59:53;24.02;;;9.95;;
64353;SDS011;50681;53.334;-6.536;2024-02-28T13:02:19;22.70;;;11.27;;
64353;SDS011;50681;53.334;-6.536;2024-02-28T13:04:44;7.65;;;3.28;;
64353;SDS011;50681;53.334;-6.536;2024-02-28T13:07:13;8.80;;;4.88;;
64353;SDS011;50681;53.334;-6.536;2024-02-28T13:09:38;7.18;;;3.15;;
64353;SDS011;50681;53.334;-6.536;2024-02-28T13:12:04;38.38;;;16.48;;
64353;SDS011;50681;53.334;-6.536;2024-02-28T13:14:30;51.97;;;21.77;;
64353;SDS011;50681;53.334;-6.536;2024-02-28T13:16:56;8.77;;;2.83;;
64353;SDS011;50681;53.334;-6.536;2024-02-28T13:19:23;18.55;;;7.20;;
64353;SDS011;50681;53.334;-6.536;2024-02-28T13:21:48;75.00;;;25.57;;
64353;SDS011;50681;53.334;-6.536;2024-02-28T13:24:14;13.80;;;5.30;;
64353;SDS011;50681;53.334;-6.536;2024-02-28T13:26:41;65.18;;;25.30;;
64353;SDS011;50681;53.334;-6.536;2024-02-28T13:29:06;50.47;;;21.43;;
64353;SDS011;50681;53.334;-6.536;2024-02-28T13:31:32;48.97;;;23.07;;
64353;SDS011;50681;53.334;-6.536;2024-02-28T13:33:58;16.48;;;7.95;;
64353;SDS011;50681;53.334;-6.536;2024-02-28T13:36:23;14.27;;;6.63;;
64353;SDS011;50681;53.334;-6.536;2024-02-28T13:38:49;10.02;;;6.03;;
64353;SDS011;50681;53.334;-6.536;2024-02-28T13:41:15;9.57;;;4.23;;
64353;SDS011;50681;53.334;-6.536;2024-02-28T13:43:41;26.13;;;11.95;;
64353;SDS011;50681;53.334;-6.536;2024-02-28T13:46:09;11.03;;;5.77;;
64353;SDS011;50681;53.334;-6.536;2024-02-28T13:48:39;13.27;;;8.27;;
64353;SDS011;50681;53.334;-6.536;2024-02-28T13:51:05;9.98;;;6.15;;
64353;SDS011;50681;53.334;-6.536;2024-02-28T13:53:30;7.85;;;3.78;;
64353;SDS011;50681;53.334;-6.536;2024-02-28T13:55:56;6.37;;;3.50;;
64353;SDS011;50681;53.334;-6.536;2024-02-28T13:58:22;15.07;;;12.43;;
64353;SDS011;50681;53.334;-6.536;2024-02-28T14:01:24;4.88;;;3.40;;
64353;SDS011;50681;53.334;-6.536;2024-02-28T14:04:44;5.57;;;3.40;;
64353;SDS011;50681;53.334;-6.536;2024-02-28T14:08:12;5.18;;;3.70;;
64353;SDS011;50681;53.334;-6.536;2024-02-28T14:10:39;9.38;;;7.40;;
64353;SDS011;50681;53.334;-6.536;2024-02-28T14:13:11;14.00;;;10.60;;
64353;SDS011;50681;53.334;-6.536;2024-02-28T14:15:43;13.32;;;10.60;;
64353;SDS011;50681;53.334;-6.536;2024-02-28T14:18:10;7.97;;;5.85;;
64353;SDS011;50681;53.334;-6.536;2024-02-28T14:23:03;3.20;;;2.25;;
64353;SDS011;50681;53.334;-6.536;2024-02-28T14:25:30;3.22;;;2.08;;
64353;SDS011;50681;53.334;-6.536;2024-02-28T14:27:55;5.63;;;3.67;;
64353;SDS011;50681;53.334;-6.536;2024-02-28T14:30:21;11.63;;;9.13;;
64353;SDS011;50681;53.334;-6.536;2024-02-28T14:32:49;8.95;;;5.75;;
64353;SDS011;50681;53.334;-6.536;2024-02-28T14:35:15;7.68;;;4.03;;
64353;SDS011;50681;53.334;-6.536;2024-02-28T14:37:41;3.88;;;2.60;;
64353;SDS011;50681;53.334;-6.536;2024-02-28T14:40:08;5.47;;;2.60;;
64353;SDS011;50681;53.334;-6.536;2024-02-28T14:42:41;7.05;;;3.58;;
64353;SDS011;50681;53.334;-6.536;2024-02-28T14:45:07;12.82;;;2.75;;
64353;SDS011;50681;53.334;-6.536;2024-02-28T14:47:42;4.90;;;2.97;;
64353;SDS011;50681;53.334;-6.536;2024-02-28T14:50:09;4.07;;;2.33;;